sensor_id;sensor_type;location;lat;lon;timestamp;P1;durP1;ratioP1;P2;durP2;ratioP2
7487;SDS011;3785;52.260;4.728;2023-06-26T00:01:57;4.57;;;3.20;;
7487;SDS011;3785;52.260;4.728;2023-06-26T00:05:18;3.53;;;2.50;;
7487;SDS011;3785;52.260;4.728;2023-06-26T00:08:39;4.00;;;2.55;;
7487;SDS011;3785;52.260;4.728;2023-06-26T00:11:59;3.40;;;2.40;;
7487;SDS011;3785;52.260;4.728;2023-06-26T00:15:20;4.07;;;2.67;;
7487;SDS011;3785;52.260;4.728;2023-06-26T00:18:40;6.00;;;2.85;;
7487;SDS011;3785;52.260;4.728;2023-06-26T00:22:01;4.75;;;2.75;;
7487;SDS011;3785;52.260;4.728;2023-06-26T00:25:22;4.25;;;2.50;;
7487;SDS011;3785;52.260;4.728;2023-06-26T00:28:42;3.95;;;2.78;;
7487;SDS011;3785;52.260;4.728;2023-06-26T00:32:03;5.32;;;3.03;;
7487;SDS011;3785;52.260;4.728;2023-06-26T00:35:24;4.50;;;2.63;;
7487;SDS011;3785;52.260;4.728;2023-06-26T00:38:44;5.15;;;3.00;;
7487;SDS011;3785;52.260;4.728;2023-06-26T00:42:05;4.65;;;2.95;;
7487;SDS011;3785;52.260;4.728;2023-06-26T00:45:26;4.55;;;2.78;;
7487;SDS011;3785;52.260;4.728;2023-06-26T00:48:46;5.97;;;3.08;;
7487;SDS011;3785;52.260;4.728;2023-06-26T00:52:08;4.28;;;2.50;;
7487;SDS011;3785;52.260;4.728;2023-06-26T00:55:29;4.13;;;2.38;;
7487;SDS011;3785;52.260;4.728;2023-06-26T00:58:50;3.60;;;2.25;;
7487;SDS011;3785;52.260;4.728;2023-06-26T01:02:10;3.90;;;2.40;;
7487;SDS011;3785;52.260;4.728;2023-06-26T01:05:31;4.60;;;2.35;;
7487;SDS011;3785;52.260;4.728;2023-06-26T01:08:51;6.38;;;2.40;;
7487;SDS011;3785;52.260;4.728;2023-06-26T01:12:12;5.88;;;2.70;;
7487;SDS011;3785;52.260;4.728;2023-06-26T01:15:33;5.15;;;2.53;;
7487;SDS011;3785;52.260;4.728;2023-06-26T01:18:54;6.07;;;2.65;;
7487;SDS011;3785;52.260;4.728;2023-06-26T01:29:35;3.67;;;2.20;;
7487;SDS011;3785;52.260;4.728;2023-06-26T01:32:57;4.15;;;2.47;;
7487;SDS011;3785;52.260;4.728;2023-06-26T01:36:18;6.30;;;2.50;;
7487;SDS011;3785;52.260;4.728;2023-06-26T01:39:38;6.63;;;2.38;;
7487;SDS011;3785;52.260;4.728;2023-06-26T01:42:59;4.90;;;2.50;;
7487;SDS011;3785;52.260;4.728;2023-06-26T01:53:21;7.00;;;2.58;;
7487;SDS011;3785;52.260;4.728;2023-06-26T01:56:45;6.20;;;2.65;;
7487;SDS011;3785;52.260;4.728;2023-06-26T02:00:09;4.85;;;2.38;;
7487;SDS011;3785;52.260;4.728;2023-06-26T02:03:31;7.43;;;3.33;;
7487;SDS011;3785;52.260;4.728;2023-06-26T02:06:51;10.13;;;2.78;;
7487;SDS011;3785;52.260;4.728;2023-06-26T02:10:12;5.63;;;2.47;;
7487;SDS011;3785;52.260;4.728;2023-06-26T02:13:33;9.18;;;2.80;;
7487;SDS011;3785;52.260;4.728;2023-06-26T02:16:53;10.85;;;3.50;;
7487;SDS011;3785;52.260;4.728;2023-06-26T02:20:14;5.60;;;2.80;;
7487;SDS011;3785;52.260;4.728;2023-06-26T02:23:35;6.18;;;2.83;;
7487;SDS011;3785;52.260;4.728;2023-06-26T02:26:56;7.68;;;3.15;;
7487;SDS011;3785;52.260;4.728;2023-06-26T02:30:17;9.48;;;3.25;;
7487;SDS011;3785;52.260;4.728;2023-06-26T02:33:38;9.68;;;3.38;;
7487;SDS011;3785;52.260;4.728;2023-06-26T02:36:59;13.77;;;3.67;;
7487;SDS011;3785;52.260;4.728;2023-06-26T02:40:20;7.78;;;3.10;;
7487;SDS011;3785;52.260;4.728;2023-06-26T02:43:40;9.93;;;3.05;;
7487;SDS011;3785;52.260;4.728;2023-06-26T02:47:01;7.43;;;3.05;;
7487;SDS011;3785;52.260;4.728;2023-06-26T02:50:22;8.88;;;3.40;;
7487;SDS011;3785;52.260;4.728;2023-06-26T02:53:42;9.90;;;3.40;;
7487;SDS011;3785;52.260;4.728;2023-06-26T02:57:03;7.47;;;2.88;;
7487;SDS011;3785;52.260;4.728;2023-06-26T03:00:23;6.97;;;2.67;;
7487;SDS011;3785;52.260;4.728;2023-06-26T03:03:44;8.75;;;2.65;;
7487;SDS011;3785;52.260;4.728;2023-06-26T03:07:07;4.45;;;2.42;;
7487;SDS011;3785;52.260;4.728;2023-06-26T03:10:27;7.07;;;2.67;;
7487;SDS011;3785;52.260;4.728;2023-06-26T03:13:48;8.20;;;2.30;;
7487;SDS011;3785;52.260;4.728;2023-06-26T03:17:08;7.50;;;2.70;;
7487;SDS011;3785;52.260;4.728;2023-06-26T03:20:29;7.20;;;2.60;;
7487;SDS011;3785;52.260;4.728;2023-06-26T03:23:49;5.07;;;2.53;;
7487;SDS011;3785;52.260;4.728;2023-06-26T03:27:10;5.57;;;2.50;;
7487;SDS011;3785;52.260;4.728;2023-06-26T03:30:30;5.55;;;2.40;;
7487;SDS011;3785;52.260;4.728;2023-06-26T03:33:51;5.47;;;2.45;;
7487;SDS011;3785;52.260;4.728;2023-06-26T03:37:12;7.20;;;2.33;;
7487;SDS011;3785;52.260;4.728;2023-06-26T03:40:32;3.70;;;2.15;;
7487;SDS011;3785;52.260;4.728;2023-06-26T03:43:53;7.10;;;2.28;;
7487;SDS011;3785;52.260;4.728;2023-06-26T03:47:14;5.30;;;2.78;;
7487;SDS011;3785;52.260;4.728;2023-06-26T03:50:35;3.83;;;2.40;;
7487;SDS011;3785;52.260;4.728;2023-06-26T03:53:55;4.60;;;2.00;;
7487;SDS011;3785;52.260;4.728;2023-06-26T03:57:16;4.75;;;1.90;;
7487;SDS011;3785;52.260;4.728;2023-06-26T04:00:36;2.83;;;1.60;;
7487;SDS011;3785;52.260;4.728;2023-06-26T04:03:57;4.55;;;2.05;;
7487;SDS011;3785;52.260;4.728;2023-06-26T04:07:18;3.55;;;1.75;;
7487;SDS011;3785;52.260;4.728;2023-06-26T04:10:39;3.70;;;1.67;;
7487;SDS011;3785;52.260;4.728;2023-06-26T04:13:59;4.82;;;1.67;;
7487;SDS011;3785;52.260;4.728;2023-06-26T04:17:20;2.95;;;1.73;;
7487;SDS011;3785;52.260;4.728;2023-06-26T04:21:03;1.95;;;1.48;;
7487;SDS011;3785;52.260;4.728;2023-06-26T04:24:28;3.83;;;2.20;;
7487;SDS011;3785;52.260;4.728;2023-06-26T04:27:49;4.53;;;1.80;;
7487;SDS011;3785;52.260;4.728;2023-06-26T04:31:09;4.03;;;1.75;;
7487;SDS011;3785;52.260;4.728;2023-06-26T04:34:30;2.60;;;1.70;;
7487;SDS011;3785;52.260;4.728;2023-06-26T04:37:55;3.33;;;1.70;;
7487;SDS011;3785;52.260;4.728;2023-06-26T04:41:15;3.92;;;1.60;;
7487;SDS011;3785;52.260;4.728;2023-06-26T04:44:36;2.45;;;1.48;;
7487;SDS011;3785;52.260;4.728;2023-06-26T04:47:57;3.70;;;1.60;;
7487;SDS011;3785;52.260;4.728;2023-06-26T04:51:19;4.00;;;1.77;;
7487;SDS011;3785;52.260;4.728;2023-06-26T04:54:40;2.95;;;1.60;;
7487;SDS011;3785;52.260;4.728;2023-06-26T04:58:01;3.33;;;1.10;;
7487;SDS011;3785;52.260;4.728;2023-06-26T05:01:22;3.55;;;1.30;;
7487;SDS011;3785;52.260;4.728;2023-06-26T05:04:42;2.58;;;1.27;;
7487;SDS011;3785;52.260;4.728;2023-06-26T05:08:16;3.38;;;1.38;;
7487;SDS011;3785;52.260;4.728;2023-06-26T05:11:37;5.18;;;2.13;;
7487;SDS011;3785;52.260;4.728;2023-06-26T05:14:58;2.53;;;1.35;;
7487;SDS011;3785;52.260;4.728;2023-06-26T05:18:19;2.88;;;1.27;;
7487;SDS011;3785;52.260;4.728;2023-06-26T05:21:39;3.10;;;1.60;;
7487;SDS011;3785;52.260;4.728;2023-06-26T05:25:00;3.25;;;1.60;;
7487;SDS011;3785;52.260;4.728;2023-06-26T05:28:23;2.50;;;1.50;;
7487;SDS011;3785;52.260;4.728;2023-06-26T05:31:44;3.50;;;1.50;;
7487;SDS011;3785;52.260;4.728;2023-06-26T05:35:06;2.35;;;1.25;;
7487;SDS011;3785;52.260;4.728;2023-06-26T05:38:27;2.25;;;1.15;;
7487;SDS011;3785;52.260;4.728;2023-06-26T05:41:48;3.50;;;1.40;;
7487;SDS011;3785;52.260;4.728;2023-06-26T05:45:09;6.47;;;1.85;;
7487;SDS011;3785;52.260;4.728;2023-06-26T05:48:30;3.63;;;1.48;;
7487;SDS011;3785;52.260;4.728;2023-06-26T05:51:50;5.43;;;1.70;;
7487;SDS011;3785;52.260;4.728;2023-06-26T05:55:11;2.45;;;1.60;;
7487;SDS011;3785;52.260;4.728;2023-06-26T05:58:33;3.67;;;1.55;;
7487;SDS011;3785;52.260;4.728;2023-06-26T06:01:54;4.65;;;1.40;;
7487;SDS011;3785;52.260;4.728;2023-06-26T06:05:15;4.93;;;1.70;;
7487;SDS011;3785;52.260;4.728;2023-06-26T06:08:36;3.20;;;1.33;;
7487;SDS011;3785;52.260;4.728;2023-06-26T06:11:56;1.63;;;1.13;;
7487;SDS011;3785;52.260;4.728;2023-06-26T06:15:18;3.67;;;1.25;;
7487;SDS011;3785;52.260;4.728;2023-06-26T06:18:39;3.22;;;1.10;;
7487;SDS011;3785;52.260;4.728;2023-06-26T06:21:59;2.03;;;0.98;;
7487;SDS011;3785;52.260;4.728;2023-06-26T06:25:20;1.85;;;0.93;;
7487;SDS011;3785;52.260;4.728;2023-06-26T06:28:40;4.55;;;1.10;;
7487;SDS011;3785;52.260;4.728;2023-06-26T06:32:01;3.42;;;1.17;;
7487;SDS011;3785;52.260;4.728;2023-06-26T06:35:21;2.63;;;1.20;;
7487;SDS011;3785;52.260;4.728;2023-06-26T06:38:42;4.00;;;0.82;;
7487;SDS011;3785;52.260;4.728;2023-06-26T06:42:05;1.38;;;0.73;;
7487;SDS011;3785;52.260;4.728;2023-06-26T06:45:25;2.42;;;0.95;;
7487;SDS011;3785;52.260;4.728;2023-06-26T06:48:46;2.92;;;1.30;;
7487;SDS011;3785;52.260;4.728;2023-06-26T06:52:07;2.42;;;1.15;;
7487;SDS011;3785;52.260;4.728;2023-06-26T06:55:27;1.98;;;0.93;;
7487;SDS011;3785;52.260;4.728;2023-06-26T06:58:48;2.45;;;0.90;;
7487;SDS011;3785;52.260;4.728;2023-06-26T07:02:08;1.55;;;0.88;;
7487;SDS011;3785;52.260;4.728;2023-06-26T07:05:29;4.05;;;0.90;;
7487;SDS011;3785;52.260;4.728;2023-06-26T07:08:50;2.25;;;0.82;;
7487;SDS011;3785;52.260;4.728;2023-06-26T07:12:10;2.53;;;0.75;;
7487;SDS011;3785;52.260;4.728;2023-06-26T07:15:31;1.67;;;0.60;;
7487;SDS011;3785;52.260;4.728;2023-06-26T07:18:51;2.67;;;0.73;;
7487;SDS011;3785;52.260;4.728;2023-06-26T07:22:12;3.47;;;0.80;;
7487;SDS011;3785;52.260;4.728;2023-06-26T07:25:33;4.15;;;1.00;;
7487;SDS011;3785;52.260;4.728;2023-06-26T07:28:53;2.03;;;0.82;;
7487;SDS011;3785;52.260;4.728;2023-06-26T07:32:16;2.33;;;0.80;;
7487;SDS011;3785;52.260;4.728;2023-06-26T07:35:37;3.05;;;1.00;;
7487;SDS011;3785;52.260;4.728;2023-06-26T07:38:58;1.88;;;0.70;;
7487;SDS011;3785;52.260;4.728;2023-06-26T07:42:18;3.88;;;1.17;;
7487;SDS011;3785;52.260;4.728;2023-06-26T07:45:39;3.03;;;0.82;;
7487;SDS011;3785;52.260;4.728;2023-06-26T07:49:00;2.85;;;0.80;;
7487;SDS011;3785;52.260;4.728;2023-06-26T07:52:20;3.13;;;1.05;;
7487;SDS011;3785;52.260;4.728;2023-06-26T07:55:41;2.33;;;1.00;;
7487;SDS011;3785;52.260;4.728;2023-06-26T07:59:01;1.92;;;0.90;;
7487;SDS011;3785;52.260;4.728;2023-06-26T08:02:24;2.65;;;0.88;;
7487;SDS011;3785;52.260;4.728;2023-06-26T08:05:44;2.38;;;0.90;;
7487;SDS011;3785;52.260;4.728;2023-06-26T08:09:08;1.88;;;0.70;;
7487;SDS011;3785;52.260;4.728;2023-06-26T08:12:28;3.33;;;0.85;;
7487;SDS011;3785;52.260;4.728;2023-06-26T08:15:49;2.92;;;0.98;;
7487;SDS011;3785;52.260;4.728;2023-06-26T08:19:10;3.50;;;1.23;;
7487;SDS011;3785;52.260;4.728;2023-06-26T08:22:31;2.80;;;0.68;;
7487;SDS011;3785;52.260;4.728;2023-06-26T08:25:52;2.55;;;0.90;;
7487;SDS011;3785;52.260;4.728;2023-06-26T08:29:12;2.95;;;0.80;;
7487;SDS011;3785;52.260;4.728;2023-06-26T08:32:33;1.30;;;0.60;;
7487;SDS011;3785;52.260;4.728;2023-06-26T08:35:53;1.23;;;0.70;;
7487;SDS011;3785;52.260;4.728;2023-06-26T08:39:14;1.70;;;0.70;;
7487;SDS011;3785;52.260;4.728;2023-06-26T08:42:34;2.63;;;0.85;;
7487;SDS011;3785;52.260;4.728;2023-06-26T08:45:55;2.97;;;0.95;;
7487;SDS011;3785;52.260;4.728;2023-06-26T08:49:37;2.05;;;0.77;;
7487;SDS011;3785;52.260;4.728;2023-06-26T08:53:23;1.17;;;0.60;;
7487;SDS011;3785;52.260;4.728;2023-06-26T08:56:49;2.30;;;0.73;;
7487;SDS011;3785;52.260;4.728;2023-06-26T09:00:10;1.80;;;0.80;;
7487;SDS011;3785;52.260;4.728;2023-06-26T09:03:31;2.47;;;0.98;;
7487;SDS011;3785;52.260;4.728;2023-06-26T09:06:52;2.75;;;0.88;;
7487;SDS011;3785;52.260;4.728;2023-06-26T09:10:13;3.83;;;1.00;;
7487;SDS011;3785;52.260;4.728;2023-06-26T09:13:34;1.58;;;0.68;;
7487;SDS011;3785;52.260;4.728;2023-06-26T09:16:55;3.47;;;1.10;;
7487;SDS011;3785;52.260;4.728;2023-06-26T09:20:15;2.65;;;0.90;;
7487;SDS011;3785;52.260;4.728;2023-06-26T09:23:36;1.63;;;0.75;;
7487;SDS011;3785;52.260;4.728;2023-06-26T09:26:57;3.28;;;1.10;;
7487;SDS011;3785;52.260;4.728;2023-06-26T09:30:17;3.67;;;0.95;;
7487;SDS011;3785;52.260;4.728;2023-06-26T09:33:38;1.90;;;0.80;;
7487;SDS011;3785;52.260;4.728;2023-06-26T09:36:59;2.40;;;1.15;;
7487;SDS011;3785;52.260;4.728;2023-06-26T09:40:22;4.93;;;0.90;;
7487;SDS011;3785;52.260;4.728;2023-06-26T09:43:49;3.92;;;0.70;;
7487;SDS011;3785;52.260;4.728;2023-06-26T09:47:10;2.10;;;0.68;;
7487;SDS011;3785;52.260;4.728;2023-06-26T09:50:34;2.63;;;0.90;;
7487;SDS011;3785;52.260;4.728;2023-06-26T09:53:56;2.72;;;0.73;;
7487;SDS011;3785;52.260;4.728;2023-06-26T09:57:17;3.80;;;0.90;;
7487;SDS011;3785;52.260;4.728;2023-06-26T10:00:38;1.95;;;0.70;;
7487;SDS011;3785;52.260;4.728;2023-06-26T10:03:59;2.30;;;0.70;;
7487;SDS011;3785;52.260;4.728;2023-06-26T10:07:20;3.50;;;1.17;;
7487;SDS011;3785;52.260;4.728;2023-06-26T10:10:42;2.95;;;0.90;;
7487;SDS011;3785;52.260;4.728;2023-06-26T10:14:03;2.00;;;0.68;;
7487;SDS011;3785;52.260;4.728;2023-06-26T10:17:27;2.38;;;0.75;;
7487;SDS011;3785;52.260;4.728;2023-06-26T10:20:49;3.83;;;0.80;;
7487;SDS011;3785;52.260;4.728;2023-06-26T10:24:10;1.80;;;0.70;;
7487;SDS011;3785;52.260;4.728;2023-06-26T10:27:33;2.53;;;0.70;;
7487;SDS011;3785;52.260;4.728;2023-06-26T10:30:57;4.10;;;0.90;;
7487;SDS011;3785;52.260;4.728;2023-06-26T10:34:18;2.20;;;0.75;;
7487;SDS011;3785;52.260;4.728;2023-06-26T10:37:49;1.70;;;0.65;;
7487;SDS011;3785;52.260;4.728;2023-06-26T10:41:10;2.90;;;0.68;;
7487;SDS011;3785;52.260;4.728;2023-06-26T10:44:40;2.53;;;0.73;;
7487;SDS011;3785;52.260;4.728;2023-06-26T10:48:04;1.48;;;0.70;;
7487;SDS011;3785;52.260;4.728;2023-06-26T10:51:27;2.60;;;0.77;;
7487;SDS011;3785;52.260;4.728;2023-06-26T10:54:48;2.45;;;0.60;;
7487;SDS011;3785;52.260;4.728;2023-06-26T10:58:26;2.15;;;0.77;;
7487;SDS011;3785;52.260;4.728;2023-06-26T11:05:23;1.45;;;0.57;;
7487;SDS011;3785;52.260;4.728;2023-06-26T11:12:08;2.55;;;0.90;;
7487;SDS011;3785;52.260;4.728;2023-06-26T11:15:29;3.47;;;0.95;;
7487;SDS011;3785;52.260;4.728;2023-06-26T11:18:49;2.67;;;0.60;;
7487;SDS011;3785;52.260;4.728;2023-06-26T11:22:10;3.08;;;0.70;;
7487;SDS011;3785;52.260;4.728;2023-06-26T11:25:38;1.73;;;0.95;;
7487;SDS011;3785;52.260;4.728;2023-06-26T11:28:59;1.45;;;0.60;;
7487;SDS011;3785;52.260;4.728;2023-06-26T11:32:19;2.72;;;0.85;;
7487;SDS011;3785;52.260;4.728;2023-06-26T11:35:40;1.48;;;0.50;;
7487;SDS011;3785;52.260;4.728;2023-06-26T11:39:01;2.50;;;0.70;;
7487;SDS011;3785;52.260;4.728;2023-06-26T11:42:28;1.73;;;0.82;;
7487;SDS011;3785;52.260;4.728;2023-06-26T11:45:49;0.95;;;0.60;;
7487;SDS011;3785;52.260;4.728;2023-06-26T11:49:10;4.40;;;0.95;;
7487;SDS011;3785;52.260;4.728;2023-06-26T11:52:32;1.65;;;0.68;;
7487;SDS011;3785;52.260;4.728;2023-06-26T11:55:53;3.13;;;0.77;;
7487;SDS011;3785;52.260;4.728;2023-06-26T11:59:13;2.85;;;0.80;;
7487;SDS011;3785;52.260;4.728;2023-06-26T12:02:34;3.53;;;0.80;;
7487;SDS011;3785;52.260;4.728;2023-06-26T12:05:55;3.28;;;0.90;;
7487;SDS011;3785;52.260;4.728;2023-06-26T12:09:17;2.30;;;0.82;;
7487;SDS011;3785;52.260;4.728;2023-06-26T12:12:39;1.25;;;0.65;;
7487;SDS011;3785;52.260;4.728;2023-06-26T12:16:00;2.78;;;0.70;;
7487;SDS011;3785;52.260;4.728;2023-06-26T12:19:24;1.48;;;0.80;;
7487;SDS011;3785;52.260;4.728;2023-06-26T12:22:48;2.97;;;0.88;;
7487;SDS011;3785;52.260;4.728;2023-06-26T12:26:16;2.85;;;0.70;;
7487;SDS011;3785;52.260;4.728;2023-06-26T12:29:41;2.38;;;0.90;;
7487;SDS011;3785;52.260;4.728;2023-06-26T12:33:12;1.67;;;0.60;;
7487;SDS011;3785;52.260;4.728;2023-06-26T12:36:52;1.48;;;0.80;;
7487;SDS011;3785;52.260;4.728;2023-06-26T12:40:17;2.90;;;0.57;;
7487;SDS011;3785;52.260;4.728;2023-06-26T12:43:38;3.15;;;0.70;;
7487;SDS011;3785;52.260;4.728;2023-06-26T12:47:00;2.17;;;0.93;;
7487;SDS011;3785;52.260;4.728;2023-06-26T12:50:21;3.40;;;0.98;;
7487;SDS011;3785;52.260;4.728;2023-06-26T12:53:42;2.42;;;0.60;;
7487;SDS011;3785;52.260;4.728;2023-06-26T12:57:03;2.08;;;0.73;;
7487;SDS011;3785;52.260;4.728;2023-06-26T13:00:24;1.58;;;0.75;;
7487;SDS011;3785;52.260;4.728;2023-06-26T13:03:45;1.60;;;0.60;;
7487;SDS011;3785;52.260;4.728;2023-06-26T13:07:06;2.65;;;0.90;;
7487;SDS011;3785;52.260;4.728;2023-06-26T13:10:27;1.25;;;0.63;;
7487;SDS011;3785;52.260;4.728;2023-06-26T13:13:48;2.03;;;0.60;;
7487;SDS011;3785;52.260;4.728;2023-06-26T13:17:10;1.67;;;0.70;;
7487;SDS011;3785;52.260;4.728;2023-06-26T13:20:31;2.38;;;0.50;;
7487;SDS011;3785;52.260;4.728;2023-06-26T13:23:52;1.27;;;0.45;;
7487;SDS011;3785;52.260;4.728;2023-06-26T13:27:12;0.80;;;0.50;;
7487;SDS011;3785;52.260;4.728;2023-06-26T13:30:33;2.85;;;0.80;;
7487;SDS011;3785;52.260;4.728;2023-06-26T13:33:56;0.93;;;0.73;;
7487;SDS011;3785;52.260;4.728;2023-06-26T13:37:18;1.05;;;0.68;;
7487;SDS011;3785;52.260;4.728;2023-06-26T13:40:38;3.00;;;0.70;;
7487;SDS011;3785;52.260;4.728;2023-06-26T13:43:59;2.80;;;0.98;;
7487;SDS011;3785;52.260;4.728;2023-06-26T13:47:19;1.20;;;0.60;;
7487;SDS011;3785;52.260;4.728;2023-06-26T13:50:41;1.13;;;0.70;;
7487;SDS011;3785;52.260;4.728;2023-06-26T13:54:01;0.95;;;0.57;;
7487;SDS011;3785;52.260;4.728;2023-06-26T13:57:22;1.63;;;0.93;;
7487;SDS011;3785;52.260;4.728;2023-06-26T14:00:43;2.15;;;0.70;;
7487;SDS011;3785;52.260;4.728;2023-06-26T14:04:04;1.85;;;0.82;;
7487;SDS011;3785;52.260;4.728;2023-06-26T14:07:24;1.55;;;0.70;;
7487;SDS011;3785;52.260;4.728;2023-06-26T14:10:45;1.98;;;1.13;;
7487;SDS011;3785;52.260;4.728;2023-06-26T14:14:05;3.53;;;0.80;;
7487;SDS011;3785;52.260;4.728;2023-06-26T14:17:26;3.35;;;0.90;;
7487;SDS011;3785;52.260;4.728;2023-06-26T14:20:47;2.40;;;1.20;;
7487;SDS011;3785;52.260;4.728;2023-06-26T14:24:08;2.42;;;0.80;;
7487;SDS011;3785;52.260;4.728;2023-06-26T14:27:29;2.25;;;0.70;;
7487;SDS011;3785;52.260;4.728;2023-06-26T14:30:50;2.35;;;0.80;;
7487;SDS011;3785;52.260;4.728;2023-06-26T14:34:10;3.08;;;1.02;;
7487;SDS011;3785;52.260;4.728;2023-06-26T14:37:31;3.28;;;1.02;;
7487;SDS011;3785;52.260;4.728;2023-06-26T14:40:51;1.88;;;0.63;;
7487;SDS011;3785;52.260;4.728;2023-06-26T14:44:12;3.22;;;0.80;;
7487;SDS011;3785;52.260;4.728;2023-06-26T14:47:32;1.67;;;0.80;;
7487;SDS011;3785;52.260;4.728;2023-06-26T14:50:53;2.83;;;0.90;;
7487;SDS011;3785;52.260;4.728;2023-06-26T14:54:14;2.00;;;0.60;;
7487;SDS011;3785;52.260;4.728;2023-06-26T14:57:34;1.73;;;0.70;;
7487;SDS011;3785;52.260;4.728;2023-06-26T15:00:55;1.40;;;0.70;;
7487;SDS011;3785;52.260;4.728;2023-06-26T15:04:15;3.85;;;1.00;;
7487;SDS011;3785;52.260;4.728;2023-06-26T15:07:36;2.05;;;0.80;;
7487;SDS011;3785;52.260;4.728;2023-06-26T15:10:57;1.20;;;0.70;;
7487;SDS011;3785;52.260;4.728;2023-06-26T15:14:17;1.90;;;0.70;;
7487;SDS011;3785;52.260;4.728;2023-06-26T15:17:38;1.67;;;0.60;;
7487;SDS011;3785;52.260;4.728;2023-06-26T15:20:59;2.20;;;0.60;;
7487;SDS011;3785;52.260;4.728;2023-06-26T15:24:19;1.45;;;0.63;;
7487;SDS011;3785;52.260;4.728;2023-06-26T15:27:40;1.30;;;0.73;;
7487;SDS011;3785;52.260;4.728;2023-06-26T15:31:00;1.58;;;0.70;;
7487;SDS011;3785;52.260;4.728;2023-06-26T15:34:21;2.38;;;0.70;;
7487;SDS011;3785;52.260;4.728;2023-06-26T15:37:41;3.40;;;0.93;;
7487;SDS011;3785;52.260;4.728;2023-06-26T15:41:02;2.55;;;0.70;;
7487;SDS011;3785;52.260;4.728;2023-06-26T15:44:22;3.15;;;0.75;;
7487;SDS011;3785;52.260;4.728;2023-06-26T15:47:43;2.30;;;0.60;;
7487;SDS011;3785;52.260;4.728;2023-06-26T15:51:04;1.83;;;0.70;;
7487;SDS011;3785;52.260;4.728;2023-06-26T15:54:25;3.50;;;0.80;;
7487;SDS011;3785;52.260;4.728;2023-06-26T15:57:45;1.85;;;0.65;;
7487;SDS011;3785;52.260;4.728;2023-06-26T16:01:06;2.20;;;0.60;;
7487;SDS011;3785;52.260;4.728;2023-06-26T16:04:27;2.88;;;0.60;;
7487;SDS011;3785;52.260;4.728;2023-06-26T16:07:50;1.45;;;0.60;;
7487;SDS011;3785;52.260;4.728;2023-06-26T16:11:11;1.75;;;0.85;;
7487;SDS011;3785;52.260;4.728;2023-06-26T16:14:31;2.00;;;0.60;;
7487;SDS011;3785;52.260;4.728;2023-06-26T16:17:52;2.97;;;0.65;;
7487;SDS011;3785;52.260;4.728;2023-06-26T16:21:12;1.33;;;0.63;;
7487;SDS011;3785;52.260;4.728;2023-06-26T16:24:33;1.80;;;0.60;;
7487;SDS011;3785;52.260;4.728;2023-06-26T16:27:54;1.10;;;0.60;;
7487;SDS011;3785;52.260;4.728;2023-06-26T16:31:15;1.52;;;0.60;;
7487;SDS011;3785;52.260;4.728;2023-06-26T16:34:36;1.52;;;0.60;;
7487;SDS011;3785;52.260;4.728;2023-06-26T16:37:57;1.15;;;0.70;;
7487;SDS011;3785;52.260;4.728;2023-06-26T16:41:17;1.40;;;0.80;;
7487;SDS011;3785;52.260;4.728;2023-06-26T16:44:38;1.20;;;0.60;;
7487;SDS011;3785;52.260;4.728;2023-06-26T16:47:58;2.28;;;0.77;;
7487;SDS011;3785;52.260;4.728;2023-06-26T16:51:19;1.55;;;0.77;;
7487;SDS011;3785;52.260;4.728;2023-06-26T16:54:39;2.20;;;0.50;;
7487;SDS011;3785;52.260;4.728;2023-06-26T16:58:00;1.98;;;0.50;;
7487;SDS011;3785;52.260;4.728;2023-06-26T17:01:20;2.58;;;0.80;;
7487;SDS011;3785;52.260;4.728;2023-06-26T17:04:41;2.25;;;0.80;;
7487;SDS011;3785;52.260;4.728;2023-06-26T17:08:02;0.98;;;0.60;;
7487;SDS011;3785;52.260;4.728;2023-06-26T17:11:23;1.30;;;0.60;;
7487;SDS011;3785;52.260;4.728;2023-06-26T17:14:44;0.80;;;0.50;;
7487;SDS011;3785;52.260;4.728;2023-06-26T17:18:04;1.65;;;0.68;;
7487;SDS011;3785;52.260;4.728;2023-06-26T17:21:25;3.10;;;0.57;;
7487;SDS011;3785;52.260;4.728;2023-06-26T17:24:45;2.08;;;0.70;;
7487;SDS011;3785;52.260;4.728;2023-06-26T17:28:06;1.50;;;0.70;;
7487;SDS011;3785;52.260;4.728;2023-06-26T17:31:26;1.02;;;0.70;;
7487;SDS011;3785;52.260;4.728;2023-06-26T17:34:47;2.20;;;0.88;;
7487;SDS011;3785;52.260;4.728;2023-06-26T17:38:08;2.60;;;0.80;;
7487;SDS011;3785;52.260;4.728;2023-06-26T17:41:29;3.35;;;0.85;;
7487;SDS011;3785;52.260;4.728;2023-06-26T17:44:50;2.28;;;0.73;;
7487;SDS011;3785;52.260;4.728;2023-06-26T17:48:10;3.35;;;1.00;;
7487;SDS011;3785;52.260;4.728;2023-06-26T17:51:31;1.13;;;0.70;;
7487;SDS011;3785;52.260;4.728;2023-06-26T17:54:51;2.67;;;0.88;;
7487;SDS011;3785;52.260;4.728;2023-06-26T17:58:12;1.40;;;0.75;;
7487;SDS011;3785;52.260;4.728;2023-06-26T18:01:32;1.98;;;0.68;;
7487;SDS011;3785;52.260;4.728;2023-06-26T18:04:53;1.35;;;0.80;;
7487;SDS011;3785;52.260;4.728;2023-06-26T18:08:14;2.28;;;0.73;;
7487;SDS011;3785;52.260;4.728;2023-06-26T18:11:35;2.78;;;0.73;;
7487;SDS011;3785;52.260;4.728;2023-06-26T18:14:55;3.22;;;0.90;;
7487;SDS011;3785;52.260;4.728;2023-06-26T18:18:16;3.42;;;1.20;;
7487;SDS011;3785;52.260;4.728;2023-06-26T18:21:37;1.65;;;0.73;;
7487;SDS011;3785;52.260;4.728;2023-06-26T18:24:57;2.13;;;0.80;;
7487;SDS011;3785;52.260;4.728;2023-06-26T18:28:18;1.70;;;0.80;;
7487;SDS011;3785;52.260;4.728;2023-06-26T18:31:39;1.42;;;0.70;;
7487;SDS011;3785;52.260;4.728;2023-06-26T18:35:00;1.75;;;0.95;;
7487;SDS011;3785;52.260;4.728;2023-06-26T18:38:21;3.40;;;1.20;;
7487;SDS011;3785;52.260;4.728;2023-06-26T18:41:42;2.10;;;0.82;;
7487;SDS011;3785;52.260;4.728;2023-06-26T18:45:02;2.60;;;1.10;;
7487;SDS011;3785;52.260;4.728;2023-06-26T18:48:23;2.92;;;1.08;;
7487;SDS011;3785;52.260;4.728;2023-06-26T18:51:44;2.42;;;1.02;;
7487;SDS011;3785;52.260;4.728;2023-06-26T18:55:04;1.77;;;0.80;;
7487;SDS011;3785;52.260;4.728;2023-06-26T18:58:25;2.83;;;1.15;;
7487;SDS011;3785;52.260;4.728;2023-06-26T19:01:46;1.98;;;1.00;;
7487;SDS011;3785;52.260;4.728;2023-06-26T19:05:06;3.05;;;1.10;;
7487;SDS011;3785;52.260;4.728;2023-06-26T19:08:27;2.72;;;1.17;;
7487;SDS011;3785;52.260;4.728;2023-06-26T19:11:48;1.95;;;0.90;;
7487;SDS011;3785;52.260;4.728;2023-06-26T19:15:09;1.98;;;1.17;;
7487;SDS011;3785;52.260;4.728;2023-06-26T19:18:30;2.72;;;1.20;;
7487;SDS011;3785;52.260;4.728;2023-06-26T19:21:51;2.13;;;0.98;;
7487;SDS011;3785;52.260;4.728;2023-06-26T19:25:12;1.70;;;0.98;;
7487;SDS011;3785;52.260;4.728;2023-06-26T19:28:32;1.30;;;0.85;;
7487;SDS011;3785;52.260;4.728;2023-06-26T19:31:54;3.58;;;1.27;;
7487;SDS011;3785;52.260;4.728;2023-06-26T19:35:14;3.85;;;1.20;;
7487;SDS011;3785;52.260;4.728;2023-06-26T19:38:35;2.95;;;1.02;;
7487;SDS011;3785;52.260;4.728;2023-06-26T19:41:56;2.30;;;1.00;;
7487;SDS011;3785;52.260;4.728;2023-06-26T19:45:16;3.55;;;1.23;;
7487;SDS011;3785;52.260;4.728;2023-06-26T19:48:37;3.97;;;1.30;;
7487;SDS011;3785;52.260;4.728;2023-06-26T19:51:57;4.63;;;1.60;;
7487;SDS011;3785;52.260;4.728;2023-06-26T19:55:18;2.40;;;1.15;;
7487;SDS011;3785;52.260;4.728;2023-06-26T19:58:38;2.10;;;1.13;;
7487;SDS011;3785;52.260;4.728;2023-06-26T20:01:59;4.15;;;1.65;;
7487;SDS011;3785;52.260;4.728;2023-06-26T20:05:20;3.60;;;1.50;;
7487;SDS011;3785;52.260;4.728;2023-06-26T20:08:40;4.03;;;1.40;;
7487;SDS011;3785;52.260;4.728;2023-06-26T20:12:01;4.95;;;1.52;;
7487;SDS011;3785;52.260;4.728;2023-06-26T20:15:22;4.05;;;1.45;;
7487;SDS011;3785;52.260;4.728;2023-06-26T20:18:42;1.67;;;1.13;;
7487;SDS011;3785;52.260;4.728;2023-06-26T20:22:03;4.25;;;1.48;;
7487;SDS011;3785;52.260;4.728;2023-06-26T20:25:24;3.80;;;1.13;;
7487;SDS011;3785;52.260;4.728;2023-06-26T20:28:44;2.15;;;1.30;;
7487;SDS011;3785;52.260;4.728;2023-06-26T20:32:05;2.88;;;1.52;;
7487;SDS011;3785;52.260;4.728;2023-06-26T20:35:26;4.97;;;1.92;;
7487;SDS011;3785;52.260;4.728;2023-06-26T20:38:46;4.95;;;1.77;;
7487;SDS011;3785;52.260;4.728;2023-06-26T20:42:07;2.90;;;1.42;;
7487;SDS011;3785;52.260;4.728;2023-06-26T20:45:29;3.63;;;1.60;;
7487;SDS011;3785;52.260;4.728;2023-06-26T20:48:50;2.35;;;1.30;;
7487;SDS011;3785;52.260;4.728;2023-06-26T20:52:11;3.47;;;1.73;;
7487;SDS011;3785;52.260;4.728;2023-06-26T20:55:32;6.03;;;1.50;;
7487;SDS011;3785;52.260;4.728;2023-06-26T20:58:52;3.70;;;1.70;;
7487;SDS011;3785;52.260;4.728;2023-06-26T21:02:13;4.15;;;1.83;;
7487;SDS011;3785;52.260;4.728;2023-06-26T21:05:34;3.15;;;1.60;;
7487;SDS011;3785;52.260;4.728;2023-06-26T21:08:54;4.72;;;1.77;;
7487;SDS011;3785;52.260;4.728;2023-06-26T21:12:17;4.30;;;1.80;;